This is the latest recevied weather packets stored in our database for station/object WP3OF-5. If no packets are shown the sender has not sent any weather packets the latest 10 day(s).
| Time | Temp. | Humidity | Pressure | Rain* | Wind** | Luminosity | Snow |
|---|---|---|---|---|---|---|---|
| 1777735617 | 30.56° C | 62% | 1017.3 hPa | 0 mm | - | - | - |
| 1777735314 | 30.56° C | 64% | 1017.2 hPa | 0 mm | - | - | - |
| 1777735012 | 30° C | 66% | 1017.5 hPa | 0 mm | - | - | - |
| 1777734709 | 30° C | 64% | 1017.3 hPa | 0 mm | - | - | - |
| 1777734407 | 30° C | 65% | 1017.4 hPa | 0 mm | - | - | - |
| 1777734103 | 30° C | 65% | 1017.4 hPa | 0 mm | - | - | - |
| 1777733799 | 29.44° C | 67% | 1017.5 hPa | 0 mm | - | - | - |
| 1777733496 | 29.44° C | 65% | 1017.6 hPa | 0 mm | - | - | - |
| 1777733192 | 29.44° C | 67% | 1017.5 hPa | 0 mm | - | - | - |
| 1777732889 | 29.44° C | 68% | 1017.6 hPa | 0 mm | - | - | - |
| 1777732586 | 28.89° C | 70% | 1017.6 hPa | 0 mm | - | - | - |
| 1777732283 | 28.89° C | 70% | 1017.6 hPa | 0 mm | - | - | - |
| 1777731980 | 29.44° C | 69% | 1017.5 hPa | 0 mm | - | - | - |
| 1777731677 | 30° C | 67% | 1017.8 hPa | 0 mm | - | - | - |
| 1777731374 | 29.44° C | 69% | 1017.7 hPa | 0 mm | - | - | - |
| 1777731072 | 28.89° C | 69% | 1017.6 hPa | 0 mm | - | - | - |
| 1777730771 | 28.33° C | 70% | 1017.5 hPa | 0 mm | - | - | - |
| 1777730466 | 28.33° C | 67% | 1017.6 hPa | 0 mm | - | - | - |
| 1777730162 | 28.33° C | 68% | 1018 hPa | 0 mm | - | - | - |
| 1777729859 | 27.78° C | 70% | 1017.6 hPa | 0 mm | - | - | - |
| 1777729556 | 28.33° C | 68% | 1017.7 hPa | 0 mm | - | - | - |
| 1777729253 | 28.33° C | 68% | 1017.7 hPa | 0 mm | - | - | - |
| 1777728949 | 28.33° C | 68% | 1017.6 hPa | 0 mm | - | - | - |
| 1777728646 | 28.33° C | 69% | 1017.6 hPa | 0 mm | - | - | - |
| 1777728343 | 27.78° C | 70% | 1017.8 hPa | 0 mm | - | - | - |
* Rain latest hour (hover to see other rain measurements)
** Current wind speed in m/s (hover to see current wind gust speed)